Terminal Aerodrome Forecast
Issued by NWS

Home | Current Version | Previous Version | Text Only | Print | Product List | Glossary On
Versions: 1 2 3 4 5 6 7 8 9 10 11 12 13 14 15 16 17 18 19 20 21 22 23 24
000
FTUS44 KFWD 290900 AAA
TAFFTW
TAF AMD
KFTW 290902Z 2909/3006 15007KT P6SM SCT250
     FM300100 09004KT P6SM FEW250
     FM300500 05005KT 3SM BR BKN008=

USA.gov is the U.S. government's official web portal to all federal, state and local government web resources and services.